Startpagina
METAR-TAF:

METAR-TAF

Vliegvelden :

Tegucigalpa, Honduras

Luchthaven Toncontín

breedte: 14-03N, lengte: 087-13W, hoogte: 994 m

Actueel weer

Dit bericht is 46 minuten geleden gemaakt, om 09:00 UTC
Weinig wind
Temperatuur 18°C
Vochtigheid 73%
Druk 1018 hPa
Zicht 10 km of meer
Gebroken wolken op 2800 ft

METAR: MHTG 190900Z 00000KT 9999 BKN028 18/13 Q1018 A3006 NOSIG

Tijdstip: 03:46 (09:46 UTC)

Verwachting

Verwachting geldig van 19 om 06 UTC tot 20 om 06 UTC
Wind kt uit het noorden
Zicht 10 km of meer
Weinig wolken op 800 ft
Verspreide wolken op 2600 ft
Wijzigt naar
van 19 om 13 UTC tot 19 om 15 UTC
Wind 10 kt uit het oostnoordoosten
Zicht 10 km of meer
Weinig wolken op 3200 ft
Wijzigt naar
van 20 om 00 UTC tot 20 om 02 UTC
Wind 4 kt uit het noordnoordoosten

TAF: MHTG 1906/2006 00000KT 9999 FEW008 SCT026 TX29/1920Z TN17/1912Z BECMG 1913/1915 06010KT 9999 FEW032 BECMG 2000/2002 02004KT

Waarnemingen en weersverwachtingen van meer dan 4000 vliegvelden (METAR en TAF).

De beschikbare stations zijn de gele en rode punten op de kaart.

Ga met uw muis naar het station om de naam te zien.

Klik dan om waarnemingen en weersverwachtingen te zien.

kaart wijzigen: klik op de groene knoppen met een zwart kruis om in te zoomen, op de groene knop met een streepje om uit te zoomen of op de groene pijlen voor aangrenzende kaarten.


METAR-TAF: